createdAt,value
2019-03-04T00:02:27.512Z,2.00
2019-03-04T00:05:07.464Z,2.17
2019-03-04T00:07:48.442Z,2.15
2019-03-04T00:10:28.135Z,2.15
2019-03-04T00:13:08.010Z,2.30
2019-03-04T00:15:48.982Z,2.65
2019-03-04T00:18:29.137Z,2.15
2019-03-04T00:21:09.027Z,2.83
2019-03-04T00:23:48.694Z,2.27
2019-03-04T00:26:29.497Z,2.20
2019-03-04T00:29:09.172Z,2.40
2019-03-04T00:31:48.853Z,2.27
2019-03-04T00:34:29.069Z,2.75
2019-03-04T00:37:08.951Z,2.47
2019-03-04T00:39:48.857Z,2.45
2019-03-04T00:42:28.546Z,3.17
2019-03-04T00:45:08.795Z,2.42
2019-03-04T00:47:48.701Z,4.17
2019-03-04T00:50:28.485Z,2.15
2019-03-04T00:53:08.477Z,3.35
2019-03-04T00:55:48.270Z,2.27
2019-03-04T00:58:28.063Z,2.75
2019-03-04T01:01:07.856Z,2.47
2019-03-04T01:03:47.619Z,2.52
2019-03-04T01:06:27.242Z,2.37
2019-03-04T01:09:11.088Z,4.30
2019-03-04T01:11:50.915Z,2.75
2019-03-04T01:14:30.650Z,2.50
2019-03-04T01:17:11.431Z,2.47
2019-03-04T01:19:51.144Z,2.52
2019-03-04T01:22:30.994Z,2.35
2019-03-04T01:25:15.799Z,3.10
2019-03-04T01:27:55.490Z,2.33
2019-03-04T01:30:35.332Z,2.50
2019-03-04T01:33:16.103Z,3.00
2019-03-04T01:35:55.845Z,2.77
2019-03-04T01:38:35.469Z,2.20
2019-03-04T01:41:15.350Z,2.30
2019-03-04T01:43:55.071Z,2.58
2019-03-04T01:46:34.806Z,2.92
2019-03-04T01:49:14.514Z,3.20
2019-03-04T01:51:54.300Z,2.72
2019-03-04T01:54:34.123Z,2.50
2019-03-04T01:57:13.972Z,2.72
2019-03-04T01:59:53.716Z,2.80
2019-03-04T02:02:33.619Z,2.52
2019-03-04T02:05:13.504Z,2.70
2019-03-04T02:07:54.229Z,2.50
2019-03-04T02:10:33.901Z,2.52
2019-03-04T02:13:13.661Z,2.72
2019-03-04T02:15:53.324Z,2.47
2019-03-04T02:18:35.299Z,2.40
2019-03-04T02:21:15.159Z,2.55
2019-03-04T02:23:54.783Z,2.67
2019-03-04T02:26:35.550Z,2.40
2019-03-04T02:29:15.262Z,2.45
2019-03-04T02:31:54.966Z,2.02
2019-03-04T02:34:34.703Z,2.42
2019-03-04T02:37:14.417Z,2.50
2019-03-04T02:39:54.084Z,2.20
2019-03-04T02:42:33.933Z,2.40
2019-03-04T02:45:16.627Z,2.40
2019-03-04T02:47:57.993Z,2.35
2019-03-04T02:50:37.800Z,2.20
2019-03-04T02:53:17.580Z,2.02
2019-03-04T02:55:57.354Z,2.12
2019-03-04T02:58:37.071Z,2.20
2019-03-04T03:01:16.783Z,2.62
2019-03-04T03:03:56.387Z,2.35
2019-03-04T03:06:36.153Z,2.45
2019-03-04T03:09:15.897Z,2.87
2019-03-04T03:11:55.706Z,2.70
2019-03-04T03:14:35.371Z,2.58
2019-03-04T03:17:15.151Z,2.58
2019-03-04T03:19:54.872Z,2.30
2019-03-04T03:22:34.585Z,2.45
2019-03-04T03:25:15.200Z,2.50
2019-03-04T03:27:59.726Z,2.60
2019-03-04T03:30:40.617Z,2.52
2019-03-04T03:33:20.293Z,2.20
2019-03-04T03:36:00.105Z,2.45
2019-03-04T03:38:39.924Z,2.67
2019-03-04T03:41:19.689Z,2.10
2019-03-04T03:43:59.453Z,2.20
2019-03-04T03:46:39.241Z,2.02
2019-03-04T03:49:19.069Z,2.00
2019-03-04T03:51:58.851Z,1.62
2019-03-04T03:54:38.669Z,1.95
2019-03-04T03:57:18.451Z,2.27
2019-03-04T03:59:58.116Z,1.75
2019-03-04T04:02:37.889Z,2.08
2019-03-04T04:05:17.826Z,2.20
2019-03-04T04:08:00.499Z,2.15
2019-03-04T04:10:40.312Z,1.90
2019-03-04T04:13:20.044Z,2.02
2019-03-04T04:15:59.720Z,1.90
2019-03-04T04:18:39.428Z,2.10
2019-03-04T04:21:19.186Z,1.82
2019-03-04T04:23:59.224Z,2.22
2019-03-04T04:26:40.333Z,2.08
2019-03-04T04:29:21.085Z,1.95
2019-03-04T04:32:00.901Z,2.05
2019-03-04T04:34:40.737Z,2.20
2019-03-04T04:37:20.468Z,2.30
2019-03-04T04:40:00.317Z,1.95
2019-03-04T04:42:40.018Z,1.70
2019-03-04T04:45:19.744Z,3.17
2019-03-04T04:47:59.616Z,2.10
2019-03-04T04:50:39.385Z,1.72
2019-03-04T04:53:19.202Z,2.02
2019-03-04T04:55:58.876Z,1.70
2019-03-04T04:58:38.497Z,1.95
2019-03-04T05:01:18.263Z,1.67
2019-03-04T05:03:58.068Z,1.90
2019-03-04T05:06:37.693Z,1.60
2019-03-04T05:09:18.202Z,2.00
2019-03-04T05:11:59.698Z,1.75
2019-03-04T05:14:39.289Z,1.70
2019-03-04T05:17:19.137Z,2.02
2019-03-04T05:19:58.848Z,1.60
2019-03-04T05:22:38.625Z,1.47
2019-03-04T05:25:18.290Z,1.80
2019-03-04T05:27:57.930Z,1.85
2019-03-04T05:30:40.829Z,1.80
2019-03-04T05:33:20.539Z,1.80
2019-03-04T05:36:00.031Z,1.70
2019-03-04T05:38:39.864Z,2.05
2019-03-04T05:41:19.597Z,1.80
2019-03-04T05:44:01.044Z,1.82
2019-03-04T05:46:41.854Z,2.40
2019-03-04T05:49:21.475Z,2.08
2019-03-04T05:52:02.335Z,1.65
2019-03-04T05:54:42.033Z,1.50
2019-03-04T05:57:21.800Z,2.15
2019-03-04T06:00:01.465Z,1.95
2019-03-04T06:02:40.903Z,1.83
2019-03-04T06:05:20.379Z,2.10
2019-03-04T06:08:02.483Z,1.60
2019-03-04T06:10:43.723Z,1.70
2019-03-04T06:13:26.081Z,1.87
2019-03-04T06:16:05.432Z,1.67
2019-03-04T06:18:44.890Z,2.10
2019-03-04T06:21:24.676Z,2.10
2019-03-04T06:24:04.532Z,2.50
2019-03-04T06:26:43.887Z,2.33
2019-03-04T06:29:23.637Z,2.10
2019-03-04T06:32:03.145Z,2.40
2019-03-04T06:34:42.613Z,1.60
2019-03-04T06:37:22.021Z,2.23
2019-03-04T06:40:01.498Z,2.17
2019-03-04T06:42:41.097Z,1.73
2019-03-04T06:45:20.682Z,1.77
2019-03-04T06:48:00.309Z,1.97
2019-03-04T06:50:50.987Z,1.77
2019-03-04T06:54:28.876Z,3.40
2019-03-04T06:57:31.322Z,2.17
2019-03-04T07:00:55.394Z,2.03
2019-03-04T07:03:49.797Z,2.23
2019-03-04T07:06:29.271Z,2.30
2019-03-04T07:09:18.358Z,1.80
2019-03-04T07:11:58.134Z,1.77
2019-03-04T07:14:37.616Z,1.33
2019-03-04T07:17:17.118Z,1.87
2019-03-04T07:20:07.088Z,1.73
2019-03-04T07:22:49.445Z,1.30
2019-03-04T07:25:31.737Z,1.93
2019-03-04T07:28:13.293Z,1.57
2019-03-04T07:30:54.337Z,3.67
2019-03-04T07:33:33.980Z,1.80
2019-03-04T07:36:13.405Z,1.50
2019-03-04T07:39:05.800Z,2.63
2019-03-04T07:41:55.073Z,1.90
2019-03-04T07:44:34.531Z,1.77
2019-03-04T07:47:14.442Z,3.43
2019-03-04T07:49:53.990Z,1.53
2019-03-04T07:52:33.421Z,1.60
2019-03-04T07:55:12.944Z,1.47
2019-03-04T07:57:52.472Z,1.50
2019-03-04T08:00:32.067Z,1.50
2019-03-04T08:03:13.510Z,1.80
2019-03-04T08:05:57.661Z,1.70
2019-03-04T08:08:40.715Z,1.30
2019-03-04T08:12:14.068Z,1.80
2019-03-04T08:14:53.487Z,1.47
2019-03-04T08:17:34.430Z,2.00
2019-03-04T08:20:15.362Z,1.60
2019-03-04T08:22:54.777Z,1.67
2019-03-04T08:25:34.358Z,1.90
2019-03-04T08:28:16.597Z,1.50
2019-03-04T08:30:56.019Z,2.07
2019-03-04T08:33:38.050Z,1.67
2019-03-04T08:36:17.624Z,2.03
2019-03-04T08:38:57.168Z,1.93
2019-03-04T08:41:36.625Z,1.87
2019-03-04T08:44:16.167Z,1.97
2019-03-04T08:46:55.757Z,1.93
2019-03-04T08:49:36.142Z,2.20
2019-03-04T08:52:15.559Z,1.63
2019-03-04T08:54:55.017Z,1.73
2019-03-04T08:57:37.680Z,1.73
2019-03-04T09:00:24.984Z,1.90
2019-03-04T09:03:04.390Z,1.93
2019-03-04T09:05:43.768Z,1.87
2019-03-04T09:08:23.481Z,1.80
2019-03-04T09:11:03.070Z,1.77
2019-03-04T09:13:42.562Z,1.97
2019-03-04T09:16:21.955Z,1.90
2019-03-04T09:19:01.370Z,1.60
2019-03-04T09:21:40.834Z,1.80
2019-03-04T09:24:20.286Z,1.80
2019-03-04T09:26:59.652Z,1.77
2019-03-04T09:29:39.216Z,1.63
2019-03-04T09:32:18.634Z,1.63
2019-03-04T09:34:58.043Z,1.53
2019-03-04T09:37:37.366Z,1.60
2019-03-04T09:40:17.207Z,2.00
2019-03-04T09:42:56.542Z,1.80
2019-03-04T09:45:39.220Z,1.97
2019-03-04T09:48:17.295Z,1.97
2019-03-04T09:50:57.811Z,1.77
2019-03-04T09:53:39.709Z,1.90
2019-03-04T09:56:18.442Z,1.60
2019-03-04T09:58:58.403Z,2.03
2019-03-04T10:01:50.269Z,1.90
2019-03-04T10:05:34.727Z,2.13
2019-03-04T10:08:39.642Z,1.50
2019-03-04T10:12:00.426Z,1.40
2019-03-04T10:15:30.430Z,1.80
2019-03-04T10:19:05.919Z,1.90
2019-03-04T10:22:00.095Z,2.53
2019-03-04T10:25:07.184Z,2.20
2019-03-04T10:28:31.940Z,1.90
2019-03-04T10:31:42.595Z,2.20
2019-03-04T10:35:30.106Z,2.10
2019-03-04T10:39:10.075Z,2.50
2019-03-04T10:42:55.592Z,1.80
2019-03-04T10:46:12.148Z,2.20
2019-03-04T10:48:52.920Z,2.00
2019-03-04T10:51:32.395Z,2.10
2019-03-04T10:54:11.835Z,2.30
2019-03-04T10:56:51.321Z,2.50
2019-03-04T10:59:30.764Z,2.00
2019-03-04T11:02:10.276Z,2.30
2019-03-04T11:04:49.691Z,2.23
2019-03-04T11:07:29.054Z,1.87
2019-03-04T11:10:09.353Z,2.20
2019-03-04T11:12:50.038Z,2.10
2019-03-04T11:15:31.555Z,1.90
2019-03-04T11:18:11.061Z,1.77
2019-03-04T11:20:50.594Z,1.57
2019-03-04T11:23:31.071Z,1.60
2019-03-04T11:26:11.876Z,1.73
2019-03-04T11:28:51.524Z,1.50
2019-03-04T11:31:33.617Z,1.30
2019-03-04T11:34:13.011Z,1.70
2019-03-04T11:36:52.625Z,1.37
2019-03-04T11:39:50.190Z,1.30
2019-03-04T11:42:29.931Z,1.30
2019-03-04T11:45:13.631Z,1.10
2019-03-04T11:47:53.111Z,1.53
2019-03-04T11:50:32.657Z,1.00
2019-03-04T11:53:13.566Z,1.17
2019-03-04T11:55:54.258Z,1.30
2019-03-04T11:58:34.793Z,1.30
2019-03-04T12:01:18.562Z,1.33
2019-03-04T12:03:57.996Z,1.10
2019-03-04T12:06:37.867Z,1.10
2019-03-04T12:09:17.457Z,1.20
2019-03-04T12:11:56.953Z,0.80
2019-03-04T12:14:36.338Z,1.00
2019-03-04T12:17:15.788Z,0.60
2019-03-04T12:19:55.410Z,1.00
2019-03-04T12:22:35.092Z,0.73
2019-03-04T12:25:15.253Z,0.53
2019-03-04T12:27:54.725Z,0.70
2019-03-04T12:30:36.452Z,0.60
2019-03-04T12:33:16.005Z,0.80
2019-03-04T12:35:55.622Z,0.77
2019-03-04T12:38:34.999Z,0.40
2019-03-04T12:41:14.481Z,0.73
2019-03-04T12:43:53.913Z,0.80
2019-03-04T12:46:33.402Z,0.67
2019-03-04T12:49:12.956Z,3.03
2019-03-04T12:51:52.381Z,4.83
2019-03-04T12:54:31.900Z,1.10
2019-03-04T12:57:11.258Z,0.93
2019-03-04T12:59:50.718Z,0.90
2019-03-04T13:02:30.349Z,0.70
2019-03-04T13:05:10.809Z,0.67
2019-03-04T13:07:50.284Z,0.73
2019-03-04T13:10:31.679Z,0.53
2019-03-04T13:13:10.842Z,0.53
2019-03-04T13:15:52.710Z,1.20
2019-03-04T13:18:32.149Z,1.10
2019-03-04T13:21:11.554Z,2.17
2019-03-04T13:23:51.007Z,0.67
2019-03-04T13:26:30.482Z,0.80
2019-03-04T13:29:09.929Z,1.03
2019-03-04T13:31:49.275Z,1.33
2019-03-04T13:34:28.664Z,0.80
2019-03-04T13:37:08.032Z,1.20
2019-03-04T13:39:47.483Z,0.70
2019-03-04T13:42:27.249Z,0.90
2019-03-04T13:45:12.709Z,0.73
2019-03-04T13:47:52.437Z,1.10
2019-03-04T13:50:32.037Z,0.60
2019-03-04T13:53:11.516Z,0.83
2019-03-04T13:55:50.884Z,0.90
2019-03-04T13:58:30.671Z,0.70
2019-03-04T14:01:10.099Z,1.10
2019-03-04T14:03:49.487Z,0.70
2019-03-04T14:06:28.852Z,0.80
2019-03-04T14:09:09.658Z,0.90
2019-03-04T14:11:50.862Z,0.70
2019-03-04T14:14:34.274Z,0.60
2019-03-04T14:17:13.895Z,0.77
2019-03-04T14:19:53.421Z,1.37
2019-03-04T14:22:40.161Z,2.33
2019-03-04T14:25:14.127Z,1.43
2019-03-04T14:27:53.568Z,0.90
2019-03-04T14:30:33.739Z,1.50
2019-03-04T14:33:13.263Z,2.70
2019-03-04T14:35:52.854Z,0.90
2019-03-04T14:38:32.370Z,1.07
2019-03-04T14:41:13.301Z,1.00
2019-03-04T14:43:53.893Z,1.37
2019-03-04T14:46:33.370Z,0.70
2019-03-04T14:49:13.053Z,0.70
2019-03-04T14:51:52.696Z,0.90
2019-03-04T14:54:32.088Z,0.93
2019-03-04T14:57:11.481Z,0.80
2019-03-04T14:59:53.272Z,0.70
2019-03-04T15:02:32.658Z,1.60
2019-03-04T15:05:13.510Z,0.63
2019-03-04T15:07:53.025Z,0.83
2019-03-04T15:10:32.760Z,1.10
2019-03-04T15:13:12.164Z,0.60
2019-03-04T15:16:00.774Z,0.80
2019-03-04T15:18:35.087Z,0.80
2019-03-04T15:21:15.717Z,0.93
2019-03-04T15:23:55.171Z,0.87
2019-03-04T15:26:43.628Z,0.60
2019-03-04T15:29:15.846Z,0.60
2019-03-04T15:31:55.415Z,0.70
2019-03-04T15:34:34.996Z,1.10
2019-03-04T15:37:16.191Z,0.83
2019-03-04T15:39:55.696Z,1.10
2019-03-04T15:42:35.190Z,1.17
2019-03-04T15:45:15.203Z,1.23
2019-03-04T15:47:54.684Z,0.90
2019-03-04T15:50:34.800Z,1.03
2019-03-04T15:53:14.343Z,0.90
2019-03-04T15:55:54.039Z,0.87
2019-03-04T15:58:33.550Z,0.63
2019-03-04T16:01:13.696Z,1.00
2019-03-04T16:03:53.211Z,0.80
2019-03-04T16:06:32.938Z,1.00
2019-03-04T16:09:17.340Z,0.90
2019-03-04T16:11:56.917Z,0.60
2019-03-04T16:14:36.458Z,0.80
2019-03-04T16:17:16.046Z,0.70
2019-03-04T16:19:55.780Z,0.70
2019-03-04T16:22:35.401Z,0.77
2019-03-04T16:25:15.380Z,0.93
2019-03-04T16:28:05.678Z,0.63
2019-03-04T16:30:48.614Z,0.70
2019-03-04T16:33:28.207Z,0.80
2019-03-04T16:36:07.972Z,0.78
2019-03-04T16:38:47.565Z,0.70
2019-03-04T16:41:27.397Z,4.42
2019-03-04T16:44:06.941Z,1.30
2019-03-04T16:46:46.367Z,1.00
2019-03-04T16:49:26.173Z,0.95
2019-03-04T16:52:08.752Z,0.90
2019-03-04T16:54:48.552Z,1.00
2019-03-04T16:57:28.242Z,1.12
2019-03-04T17:00:11.078Z,1.00
2019-03-04T17:02:51.481Z,1.00
2019-03-04T17:05:31.302Z,1.02
2019-03-04T17:08:12.068Z,0.80
2019-03-04T17:10:52.931Z,1.10
2019-03-04T17:13:33.086Z,1.85
2019-03-04T17:16:12.935Z,2.25
2019-03-04T17:18:52.884Z,1.80
2019-03-04T17:21:32.749Z,1.15
2019-03-04T17:24:12.938Z,1.80
2019-03-04T17:26:54.902Z,1.50
2019-03-04T17:29:34.929Z,0.85
2019-03-04T17:32:14.760Z,1.45
2019-03-04T17:34:54.831Z,1.27
2019-03-04T17:37:34.546Z,1.15
2019-03-04T17:40:16.068Z,1.40
2019-03-04T17:42:59.583Z,1.10
2019-03-04T17:45:39.762Z,0.90
2019-03-04T17:48:20.992Z,1.25
2019-03-04T17:51:01.012Z,0.80
2019-03-04T17:53:40.754Z,1.12
2019-03-04T17:56:20.553Z,1.45
2019-03-04T17:59:00.342Z,0.80
2019-03-04T18:01:40.304Z,1.27
2019-03-04T18:04:20.049Z,1.65
2019-03-04T18:07:01.334Z,3.65
2019-03-04T18:09:41.178Z,1.22
2019-03-04T18:12:20.938Z,1.17
2019-03-04T18:15:00.971Z,1.55
2019-03-04T18:17:41.270Z,2.47
2019-03-04T18:20:21.170Z,2.75
2019-03-04T18:23:01.522Z,3.10
2019-03-04T18:25:58.242Z,2.92
2019-03-04T18:29:22.921Z,3.25
2019-03-04T18:32:44.885Z,2.60
2019-03-04T18:36:13.280Z,2.98
2019-03-04T18:39:34.756Z,2.42
2019-03-04T18:42:40.101Z,3.50
2019-03-04T18:46:18.929Z,2.85
2019-03-04T18:49:02.525Z,2.40
2019-03-04T18:51:42.334Z,2.05
2019-03-04T18:54:22.228Z,8.05
2019-03-04T18:57:01.973Z,6.87
2019-03-04T18:59:45.741Z,2.40
2019-03-04T19:02:25.488Z,4.05
2019-03-04T19:05:05.685Z,3.00
2019-03-04T19:07:50.510Z,3.60
2019-03-04T19:10:30.702Z,2.17
2019-03-04T19:13:10.428Z,5.55
2019-03-04T19:15:50.570Z,3.55
2019-03-04T19:18:30.293Z,1.82
2019-03-04T19:21:10.535Z,1.70
2019-03-04T19:23:51.438Z,4.60
2019-03-04T19:26:33.844Z,8.28
2019-03-04T19:29:13.626Z,5.67
2019-03-04T19:31:53.928Z,2.87
2019-03-04T19:34:36.075Z,4.85
2019-03-04T19:37:16.068Z,3.98
2019-03-04T19:39:56.068Z,2.60
2019-03-04T19:42:35.936Z,1.15
2019-03-04T19:45:17.837Z,3.45
2019-03-04T19:47:59.135Z,2.30
2019-03-04T19:50:39.087Z,2.60
2019-03-04T19:53:19.029Z,2.08
2019-03-04T19:55:59.175Z,1.82
2019-03-04T19:58:39.388Z,1.37
2019-03-04T20:01:19.289Z,2.05
2019-03-04T20:03:58.936Z,2.02
2019-03-04T20:06:38.973Z,1.50
2019-03-04T20:09:18.984Z,1.95
2019-03-04T20:11:58.817Z,2.10
2019-03-04T20:14:38.768Z,2.40
2019-03-04T20:17:18.731Z,1.87
2019-03-04T20:19:58.560Z,2.17
2019-03-04T20:22:38.545Z,1.90
2019-03-04T20:25:18.567Z,1.70
2019-03-04T20:27:58.405Z,1.87
2019-03-04T20:30:38.409Z,1.95
2019-03-04T20:33:18.220Z,2.22
2019-03-04T20:35:58.102Z,2.00
2019-03-04T20:38:43.218Z,2.35
2019-03-04T20:41:25.621Z,2.40
2019-03-04T20:44:05.048Z,3.37
2019-03-04T20:46:44.902Z,2.58
2019-03-04T20:49:24.823Z,2.90
2019-03-04T20:52:04.664Z,2.98
2019-03-04T20:54:46.771Z,2.65
2019-03-04T20:57:26.634Z,2.65
2019-03-04T21:00:10.664Z,2.85
2019-03-04T21:02:51.065Z,3.30
2019-03-04T21:05:33.551Z,3.33
2019-03-04T21:08:13.422Z,3.35
2019-03-04T21:10:53.488Z,3.30
2019-03-04T21:13:35.900Z,3.70
2019-03-04T21:16:15.160Z,3.87
2019-03-04T21:18:56.574Z,3.33
2019-03-04T21:21:36.600Z,3.90
2019-03-04T21:24:16.771Z,3.58
2019-03-04T21:26:57.620Z,3.55
2019-03-04T21:30:07.322Z,3.90
2019-03-04T21:33:10.176Z,3.62
2019-03-04T21:36:49.179Z,4.20
2019-03-04T21:39:33.127Z,3.80
2019-03-04T21:42:22.654Z,3.65
2019-03-04T21:45:36.687Z,3.90
2019-03-04T21:48:29.748Z,3.90
2019-03-04T21:52:20.339Z,4.80
2019-03-04T21:54:56.457Z,4.30
2019-03-04T21:57:42.519Z,4.70
2019-03-04T22:00:32.185Z,4.85
2019-03-04T22:03:33.875Z,4.40
2019-03-04T22:06:14.097Z,5.12
2019-03-04T22:08:55.654Z,4.80
2019-03-04T22:11:36.788Z,4.50
2019-03-04T22:14:16.727Z,4.60
2019-03-04T22:16:56.712Z,4.20
2019-03-04T22:19:36.634Z,4.25
2019-03-04T22:22:17.529Z,4.50
2019-03-04T22:24:57.267Z,3.70
2019-03-04T22:27:37.006Z,4.12
2019-03-04T22:30:17.366Z,4.42
2019-03-04T22:32:58.547Z,4.50
2019-03-04T22:35:38.533Z,3.60
2019-03-04T22:38:18.439Z,4.95
2019-03-04T22:40:59.435Z,4.67
2019-03-04T22:43:39.272Z,4.62
2019-03-04T22:46:19.021Z,4.40
2019-03-04T22:48:58.902Z,3.60
2019-03-04T22:51:38.723Z,4.25
2019-03-04T22:54:18.478Z,4.00
2019-03-04T22:56:58.331Z,4.30
2019-03-04T22:59:38.377Z,4.03
2019-03-04T23:02:19.507Z,3.72
2019-03-04T23:05:09.626Z,3.85
2019-03-04T23:07:53.839Z,4.15
2019-03-04T23:10:44.375Z,3.70
2019-03-04T23:13:46.569Z,3.72
2019-03-04T23:16:30.576Z,3.80
2019-03-04T23:19:10.253Z,4.58
2019-03-04T23:21:50.199Z,3.72
2019-03-04T23:24:29.946Z,4.30
2019-03-04T23:27:09.813Z,3.87
2019-03-04T23:29:50.768Z,3.80
2019-03-04T23:32:32.661Z,4.17
2019-03-04T23:35:16.158Z,3.75
2019-03-04T23:37:57.262Z,4.65
2019-03-04T23:40:37.098Z,4.05
2019-03-04T23:43:16.953Z,4.35
2019-03-04T23:45:56.641Z,4.30
2019-03-04T23:48:36.329Z,4.62
2019-03-04T23:51:16.092Z,3.75
2019-03-04T23:53:55.833Z,4.20
2019-03-04T23:56:35.551Z,3.95
2019-03-04T23:59:15.313Z,3.55
